Jackson Evers International Airport
KJAN : now visible

Airfield :











YOU CAN JOIN US ON...

 
LOGIN :

Register | Disclaimer

   EN    FR    IT 

 









Legend :    VFR   Marginal VFR   IFR   Intensive IFR   Very Intensive IFR
Visi :
Ceiling :
>= 8 km
>= 3000ft
5 to 8 km
1000 to 3000 ft
1500m to 5 km
500 to 1000 ft
800 to 1500m
200 to 500 ft
< 800m
< 200 ft
Symbols :   Thunderstorms  Fog  Heavy snow  Heavy precipitations  Wind > 20 kt







- Airport Elevation : 346 ft
- IATA code : JAN


KJAN - Jackson Evers International

CURRENT METAR :
  • 180542Z AUTO 35010KT 10SM OVC010 07/06 A3008 RMK AO2 RAE14 CIG 006V013 P0000 T00720056 $

EXPIRED METARs :
  • 180512Z AUTO 34007KT 10SM -RA BKN008 OVC014 07/06 A3007 RMK AO2 CIG 006V010 P0000 T00720061 $
  • 180501Z AUTO 35006KT 10SM -RA SCT006 BKN011 OVC016 07/06 A3006 RMK AO2 P0000 T00720061 $
  • 180454Z 35006KT 10SM -RA SCT008 BKN011 OVC065 07/06 A3006 RMK AO2 SLP177 P0000 T00720061 $
  • 180354Z 33006KT 10SM -RA OVC008 08/06 A3003 RMK AO2 RAB25 CIG 005V012 PRESRR SLP167 P0000 T00780061 $
  • 180254Z 33006KT 10SM OVC008 08/06 A3000 RMK AO2 CIG 006V010 SLP156 60000 T00780061 51030 $

TAF KJAN
Valid from the 18 at 06:00 until the 19 at 06:00 UTC


180540Z 1806/1906 33006KT P6SM -RA BKN008 OVC015
FM180700 35010KT P6SM SCT008 BKN015 OVC070
FM180900 36010KT P6SM BKN250
FM181500 02013G20KT P6SM SCT250
FM182300 02009KT P6SM BKN100
KZME FIR / North America



MET'MAP, your aeronautical weather chart ! - Copyright ORBIFLY December 2007 - Disclaimer

ORBIFLY MET'MAP TEAM :

Programming & Development : Alexandra Zaïnal
Concept & Development : Baudouin d'Aumeries
Co-Development & Prog : Marc-Olivier Méhu
Technical & hardware support : Manuel Goepfert

Contact : metmap@orbifly.com




SOURCES & CREDITS :

   NOAA       Earth
Advisory